Time;durP1;ratioP1;P1;durP2;ratioP2;P2;SDS_P1;SDS_P2;PMS_P1;PMS_P2;Temp;Humidity;BMP_temperature;BMP_pressure;BME280_temperature;BME280_humidity;BME280_pressure;Samples;Min_cycle;Max_cycle;Signal;HPM_P1;HPM_P2
2023/05/07 00:01:45;;;;;;;9.43;8.32;;;;;;;;;;4961081;28;20487;-71
2023/05/07 00:04:10;;;;;;;8.27;7.45;;;;;;;;;;4962528;28;20037;-71
2023/05/07 00:06:36;;;;;;;10.35;9.10;;;;;;;;;;4955482;28;20053;-73
2023/05/07 00:09:01;;;;;;;10.25;9.25;;;;;;;;;;4957937;28;20054;-71
2023/05/07 00:11:27;;;;;;;7.90;7.10;;;;;;;;;;4956562;28;20034;-73
2023/05/07 00:13:52;;;;;;;8.38;6.78;;;;;;;;;;4954060;28;20053;-71
2023/05/07 00:16:18;;;;;;;7.32;6.65;;;;;;;;;;4952972;28;20035;-71
2023/05/07 00:18:43;;;;;;;7.97;7.28;;;;;;;;;;4956231;28;20081;-70
2023/05/07 00:21:08;;;;;;;9.63;7.03;;;;;;;;;;4956846;28;20461;-70
2023/05/07 00:23:34;;;;;;;8.90;6.97;;;;;;;;;;4957639;28;20367;-71
2023/05/07 00:25:59;;;;;;;8.05;7.28;;;;;;;;;;4953754;28;20026;-75
2023/05/07 00:28:25;;;;;;;7.22;6.57;;;;;;;;;;4958799;28;20019;-71
2023/05/07 00:30:50;;;;;;;7.53;6.60;;;;;;;;;;4955894;28;20518;-74
2023/05/07 00:33:15;;;;;;;8.77;7.80;;;;;;;;;;4953937;28;20028;-75
2023/05/07 00:35:41;;;;;;;8.15;7.32;;;;;;;;;;4949899;28;20066;-73
2023/05/07 00:38:07;;;;;;;8.88;8.02;;;;;;;;;;4950562;28;20075;-71
2023/05/07 00:40:32;;;;;;;11.07;8.20;;;;;;;;;;4956226;28;20055;-73
2023/05/07 00:42:59;;;;;;;12.25;10.10;;;;;;;;;;4957533;28;20089;-71
2023/05/07 00:45:28;;;;;;;11.13;9.82;;;;;;;;;;4955521;28;20029;-73
2023/05/07 00:47:57;;;;;;;9.37;8.43;;;;;;;;;;4956388;28;20442;-71
2023/05/07 00:50:23;;;;;;;9.13;8.25;;;;;;;;;;4954250;28;20106;-71
2023/05/07 00:52:48;;;;;;;8.95;8.07;;;;;;;;;;4956700;28;20045;-72
2023/05/07 00:55:14;;;;;;;9.50;8.60;;;;;;;;;;4958365;28;20438;-70
2023/05/07 00:57:40;;;;;;;21.58;15.25;;;;;;;;;;4960782;28;20018;-69
2023/05/07 01:00:08;;;;;;;18.75;12.70;;;;;;;;;;4953811;28;20027;-72
2023/05/07 01:02:34;;;;;;;13.07;10.38;;;;;;;;;;4955548;28;20027;-70
2023/05/07 01:05:00;;;;;;;9.80;7.80;;;;;;;;;;4956244;28;20350;-70
2023/05/07 01:07:25;;;;;;;9.48;8.48;;;;;;;;;;4952942;28;20019;-70
2023/05/07 01:09:51;;;;;;;9.48;8.27;;;;;;;;;;4956087;28;20094;-72
2023/05/07 01:12:16;;;;;;;13.50;9.13;;;;;;;;;;4957713;28;20038;-71
2023/05/07 01:14:42;;;;;;;13.13;9.88;;;;;;;;;;4954858;28;20093;-73
2023/05/07 01:17:08;;;;;;;11.73;8.60;;;;;;;;;;4957560;28;20406;-70
2023/05/07 01:19:33;;;;;;;10.57;9.45;;;;;;;;;;4954908;28;20034;-72
2023/05/07 01:22:07;;;;;;;12.38;10.07;;;;;;;;;;4949737;28;20044;-69
2023/05/07 01:24:33;;;;;;;14.25;10.52;;;;;;;;;;4957312;28;20038;-72
2023/05/07 01:26:59;;;;;;;10.70;9.38;;;;;;;;;;4958418;28;20054;-70
2023/05/07 01:29:24;;;;;;;9.13;8.18;;;;;;;;;;4946710;28;20451;-70
2023/05/07 01:31:50;;;;;;;7.93;7.13;;;;;;;;;;4940172;28;20034;-70
2023/05/07 01:34:17;;;;;;;11.52;9.75;;;;;;;;;;4949576;28;20037;-70
2023/05/07 01:36:43;;;;;;;12.27;10.00;;;;;;;;;;4957598;28;20446;-71
2023/05/07 01:39:08;;;;;;;12.32;9.10;;;;;;;;;;4954121;28;20027;-69
2023/05/07 01:41:34;;;;;;;11.02;8.27;;;;;;;;;;4956699;28;20088;-71
2023/05/07 01:44:00;;;;;;;9.50;7.88;;;;;;;;;;4952645;28;20031;-71
2023/05/07 01:46:26;;;;;;;8.77;7.88;;;;;;;;;;4961530;28;20046;-72
2023/05/07 01:48:51;;;;;;;8.82;7.97;;;;;;;;;;4953685;28;20014;-75
2023/05/07 01:51:17;;;;;;;11.98;9.93;;;;;;;;;;4957947;28;20090;-73
2023/05/07 01:53:43;;;;;;;11.63;9.50;;;;;;;;;;4947499;28;20453;-71
2023/05/07 01:56:09;;;;;;;8.43;7.55;;;;;;;;;;4951501;28;20460;-71
2023/05/07 01:58:34;;;;;;;8.88;7.28;;;;;;;;;;4954316;28;20027;-72
2023/05/07 02:01:00;;;;;;;7.68;6.97;;;;;;;;;;4957028;28;20578;-70
2023/05/07 02:03:25;;;;;;;9.55;8.55;;;;;;;;;;4954823;28;20046;-71
2023/05/07 02:05:51;;;;;;;7.95;7.15;;;;;;;;;;4954674;28;20359;-73
2023/05/07 02:08:16;;;;;;;8.63;7.72;;;;;;;;;;4955024;28;20105;-71
2023/05/07 02:10:41;;;;;;;8.07;7.22;;;;;;;;;;4952999;28;20034;-76
2023/05/07 02:13:07;;;;;;;9.65;7.93;;;;;;;;;;4947861;28;20034;-72
2023/05/07 02:15:32;;;;;;;8.13;6.85;;;;;;;;;;4952707;28;20039;-70
2023/05/07 02:18:01;;;;;;;8.10;7.30;;;;;;;;;;4954334;28;20031;-70
2023/05/07 02:20:27;;;;;;;8.18;7.25;;;;;;;;;;4952996;28;20026;-71
2023/05/07 02:22:52;;;;;;;7.68;6.97;;;;;;;;;;4953943;28;20451;-76
2023/05/07 02:25:17;;;;;;;7.70;6.90;;;;;;;;;;4953658;28;20027;-72
2023/05/07 02:27:43;;;;;;;6.95;6.35;;;;;;;;;;4954955;28;20035;-71
2023/05/07 02:30:08;;;;;;;7.45;6.65;;;;;;;;;;4955223;28;20034;-71
2023/05/07 02:32:34;;;;;;;10.52;7.45;;;;;;;;;;4954981;28;20035;-70
2023/05/07 02:34:59;;;;;;;8.07;7.22;;;;;;;;;;4952717;28;20019;-71
2023/05/07 02:37:24;;;;;;;7.50;6.78;;;;;;;;;;4945318;28;20122;-72
2023/05/07 02:39:51;;;;;;;7.30;6.60;;;;;;;;;;4955052;28;20030;-71
2023/05/07 02:42:16;;;;;;;7.65;6.90;;;;;;;;;;4955191;28;20494;-75
2023/05/07 02:44:41;;;;;;;7.45;6.65;;;;;;;;;;4954462;28;20030;-72
2023/05/07 02:47:08;;;;;;;6.40;5.80;;;;;;;;;;4956213;28;20035;-70
2023/05/07 02:49:33;;;;;;;7.28;6.57;;;;;;;;;;4954222;28;20469;-71
2023/05/07 02:51:59;;;;;;;6.35;5.70;;;;;;;;;;4959600;28;20027;-70
2023/05/07 02:54:24;;;;;;;6.35;5.82;;;;;;;;;;4953165;28;20457;-71
2023/05/07 02:56:49;;;;;;;6.60;6.00;;;;;;;;;;4953214;28;20033;-75
2023/05/07 02:59:15;;;;;;;7.25;6.47;;;;;;;;;;4956656;28;20359;-73
2023/05/07 03:01:41;;;;;;;6.47;5.82;;;;;;;;;;4955048;28;20059;-76
2023/05/07 03:04:06;;;;;;;8.13;6.35;;;;;;;;;;4955728;28;20035;-74
2023/05/07 03:06:32;;;;;;;6.78;5.85;;;;;;;;;;4954943;28;20031;-71
2023/05/07 03:08:57;;;;;;;6.70;6.10;;;;;;;;;;4952142;28;20039;-70
2023/05/07 03:11:22;;;;;;;7.63;6.90;;;;;;;;;;4953857;28;20169;-71
2023/05/07 03:13:49;;;;;;;10.05;6.10;;;;;;;;;;4953168;28;20062;-70
2023/05/07 03:16:15;;;;;;;7.20;6.50;;;;;;;;;;4953631;28;20056;-74
2023/05/07 03:18:41;;;;;;;7.80;7.05;;;;;;;;;;4953966;28;20035;-71
2023/05/07 03:21:06;;;;;;;9.55;7.60;;;;;;;;;;4955328;28;20458;-71
2023/05/07 03:23:31;;;;;;;7.30;6.60;;;;;;;;;;4953342;28;20936;-70
2023/05/07 03:25:57;;;;;;;7.43;6.28;;;;;;;;;;4955228;28;20385;-71
2023/05/07 03:28:22;;;;;;;5.93;5.43;;;;;;;;;;4953468;28;20031;-71
2023/05/07 03:30:47;;;;;;;9.30;5.55;;;;;;;;;;4953633;28;20031;-73
2023/05/07 03:33:13;;;;;;;7.15;6.45;;;;;;;;;;4953900;28;20458;-72
2023/05/07 03:35:38;;;;;;;6.72;5.80;;;;;;;;;;4954597;28;20031;-69
2023/05/07 03:38:03;;;;;;;7.60;5.95;;;;;;;;;;4946411;28;20091;-73
2023/05/07 03:40:29;;;;;;;10.02;6.22;;;;;;;;;;4946553;28;20448;-70
2023/05/07 03:42:54;;;;;;;10.82;7.00;;;;;;;;;;4954116;28;20122;-74
2023/05/07 03:45:20;;;;;;;9.05;7.57;;;;;;;;;;4958535;28;20102;-71
2023/05/07 03:47:45;;;;;;;7.35;6.60;;;;;;;;;;4953300;28;20023;-76
2023/05/07 03:50:11;;;;;;;7.45;6.75;;;;;;;;;;4954415;28;20023;-70
2023/05/07 03:52:36;;;;;;;8.05;7.25;;;;;;;;;;4953597;28;20035;-70
2023/05/07 03:55:01;;;;;;;7.47;6.78;;;;;;;;;;4953377;28;20453;-70
2023/05/07 03:57:27;;;;;;;9.30;7.30;;;;;;;;;;4953944;28;20358;-70
2023/05/07 03:59:52;;;;;;;13.70;8.07;;;;;;;;;;4947409;28;20128;-71
2023/05/07 04:02:17;;;;;;;14.23;9.73;;;;;;;;;;4953348;28;20019;-74
2023/05/07 04:04:43;;;;;;;12.30;10.40;;;;;;;;;;4956406;28;20042;-75
2023/05/07 04:07:08;;;;;;;9.75;8.80;;;;;;;;;;4945239;28;20462;-70
2023/05/07 04:09:33;;;;;;;10.25;8.90;;;;;;;;;;4942732;28;20885;-73
2023/05/07 04:11:59;;;;;;;10.18;8.80;;;;;;;;;;4940181;28;20035;-70
2023/05/07 04:14:24;;;;;;;10.20;7.70;;;;;;;;;;4939618;28;20035;-72
2023/05/07 04:16:49;;;;;;;7.30;6.60;;;;;;;;;;4943900;28;20047;-71
2023/05/07 04:19:15;;;;;;;7.93;7.13;;;;;;;;;;4944212;28;20038;-70
2023/05/07 04:21:40;;;;;;;7.43;6.70;;;;;;;;;;4942394;28;20030;-71
2023/05/07 04:24:06;;;;;;;8.02;7.32;;;;;;;;;;4938810;28;20343;-70
2023/05/07 04:26:31;;;;;;;8.90;6.95;;;;;;;;;;4937649;28;20039;-71
2023/05/07 04:28:58;;;;;;;8.70;7.78;;;;;;;;;;4940599;28;20027;-74
2023/05/07 04:31:24;;;;;;;8.88;7.00;;;;;;;;;;4938438;28;20034;-73
2023/05/07 04:33:51;;;;;;;8.57;7.70;;;;;;;;;;4938607;28;20422;-69
2023/05/07 04:36:16;;;;;;;7.93;7.03;;;;;;;;;;4936931;28;20101;-75
2023/05/07 04:38:42;;;;;;;7.88;7.10;;;;;;;;;;4938337;28;20027;-72
2023/05/07 04:41:08;;;;;;;8.02;7.30;;;;;;;;;;4939068;28;20051;-76
2023/05/07 04:43:34;;;;;;;8.90;8.00;;;;;;;;;;4936679;28;20114;-71
2023/05/07 04:45:59;;;;;;;11.98;9.38;;;;;;;;;;4945394;28;20046;-75
2023/05/07 04:48:26;;;;;;;10.65;8.75;;;;;;;;;;4936983;28;20437;-70
2023/05/07 04:50:51;;;;;;;11.65;8.20;;;;;;;;;;4938218;28;20034;-75
2023/05/07 04:53:17;;;;;;;11.95;8.90;;;;;;;;;;4945707;28;20311;-71
2023/05/07 04:55:42;;;;;;;9.52;8.50;;;;;;;;;;4938957;28;20046;-73
2023/05/07 04:58:08;;;;;;;11.43;8.70;;;;;;;;;;4944678;28;20035;-70
2023/05/07 05:00:33;;;;;;;9.18;8.27;;;;;;;;;;4952877;28;20031;-70
2023/05/07 05:02:59;;;;;;;9.35;8.00;;;;;;;;;;4954992;28;20085;-69
2023/05/07 05:05:24;;;;;;;12.48;10.63;;;;;;;;;;4954849;28;20034;-69
2023/05/07 05:07:51;;;;;;;9.93;8.93;;;;;;;;;;4952327;28;20046;-69
2023/05/07 05:10:17;;;;;;;10.82;8.05;;;;;;;;;;4948898;28;20322;-73
2023/05/07 05:12:42;;;;;;;9.93;8.10;;;;;;;;;;4954695;28;20031;-70
2023/05/07 05:15:08;;;;;;;9.90;8.90;;;;;;;;;;4955839;28;20668;-74
2023/05/07 05:17:34;;;;;;;9.63;8.73;;;;;;;;;;4956545;28;20056;-69
2023/05/07 05:20:00;;;;;;;10.40;8.40;;;;;;;;;;4952598;28;20042;-72
2023/05/07 05:22:25;;;;;;;10.05;9.05;;;;;;;;;;4958297;28;20442;-69
2023/05/07 05:24:50;;;;;;;10.90;8.00;;;;;;;;;;4957523;28;20022;-71
2023/05/07 05:27:16;;;;;;;8.35;7.35;;;;;;;;;;4945021;28;20296;-69
2023/05/07 05:29:41;;;;;;;7.68;6.88;;;;;;;;;;4954074;28;20407;-72
2023/05/07 05:32:07;;;;;;;8.48;7.47;;;;;;;;;;4955693;28;20455;-71
2023/05/07 05:34:33;;;;;;;7.90;6.93;;;;;;;;;;4955969;28;20030;-74
2023/05/07 05:36:59;;;;;;;10.15;7.43;;;;;;;;;;4953720;28;20447;-71
2023/05/07 05:39:24;;;;;;;8.85;7.95;;;;;;;;;;4943275;28;20372;-70
2023/05/07 05:41:49;;;;;;;18.60;13.85;;;;;;;;;;4944458;28;20374;-75
2023/05/07 05:44:15;;;;;;;13.10;11.70;;;;;;;;;;4942024;28;20458;-73
2023/05/07 05:46:40;;;;;;;13.13;10.50;;;;;;;;;;4946210;28;20058;-70
2023/05/07 05:49:05;;;;;;;10.23;8.68;;;;;;;;;;4955182;28;20190;-73
2023/05/07 05:51:31;;;;;;;10.45;7.57;;;;;;;;;;4951734;28;20122;-72
2023/05/07 05:53:56;;;;;;;11.40;9.13;;;;;;;;;;4954904;28;20451;-74
2023/05/07 05:56:21;;;;;;;12.77;9.48;;;;;;;;;;4962173;28;20160;-71
2023/05/07 05:58:47;;;;;;;10.52;9.43;;;;;;;;;;4954647;28;20069;-73
2023/05/07 06:01:12;;;;;;;11.13;9.50;;;;;;;;;;4955573;28;20027;-71
2023/05/07 06:03:38;;;;;;;10.32;8.98;;;;;;;;;;4951083;28;20026;-74
2023/05/07 06:06:03;;;;;;;12.13;10.93;;;;;;;;;;4957570;28;20031;-71
2023/05/07 06:08:31;;;;;;;14.13;11.68;;;;;;;;;;4953529;28;20034;-71
2023/05/07 06:10:57;;;;;;;13.43;11.68;;;;;;;;;;4956625;28;20137;-71
2023/05/07 06:13:22;;;;;;;12.88;10.93;;;;;;;;;;4968188;28;21404;-71
2023/05/07 06:15:48;;;;;;;16.63;11.45;;;;;;;;;;4951977;28;20046;-72
2023/05/07 06:18:14;;;;;;;12.07;10.75;;;;;;;;;;4951599;28;20019;-72
2023/05/07 06:20:39;;;;;;;12.15;10.82;;;;;;;;;;4951951;28;20027;-76
2023/05/07 06:23:05;;;;;;;12.48;10.02;;;;;;;;;;4951903;28;20042;-77
2023/05/07 06:25:30;;;;;;;10.20;9.20;;;;;;;;;;4955162;28;20038;-76
2023/05/07 06:27:55;;;;;;;9.52;8.52;;;;;;;;;;4954933;28;20415;-72
2023/05/07 06:30:21;;;;;;;8.30;7.50;;;;;;;;;;4951187;28;20102;-71
2023/05/07 06:32:46;;;;;;;8.18;7.47;;;;;;;;;;4958712;28;20035;-71
2023/05/07 06:35:11;;;;;;;9.52;8.35;;;;;;;;;;4955384;28;20692;-71
2023/05/07 06:37:38;;;;;;;8.32;7.38;;;;;;;;;;4956206;28;20045;-72
2023/05/07 06:40:04;;;;;;;8.57;7.78;;;;;;;;;;4956456;28;20113;-76
2023/05/07 06:42:29;;;;;;;9.20;7.97;;;;;;;;;;4957765;28;20077;-73
2023/05/07 06:44:55;;;;;;;8.82;8.02;;;;;;;;;;4953655;28;20041;-71
2023/05/07 06:47:20;;;;;;;10.18;7.68;;;;;;;;;;4953110;28;20339;-75
2023/05/07 06:49:45;;;;;;;8.35;7.55;;;;;;;;;;4956723;28;20023;-74
2023/05/07 06:52:11;;;;;;;9.27;7.70;;;;;;;;;;4955090;28;20034;-71
2023/05/07 06:54:36;;;;;;;8.73;7.35;;;;;;;;;;4953921;28;20039;-71
2023/05/07 06:57:01;;;;;;;8.57;7.70;;;;;;;;;;4953201;28;20063;-71
2023/05/07 06:59:27;;;;;;;9.77;7.57;;;;;;;;;;4956180;28;20035;-71
2023/05/07 07:01:52;;;;;;;8.43;7.60;;;;;;;;;;4953375;28;20042;-75
2023/05/07 07:04:17;;;;;;;8.60;7.45;;;;;;;;;;4954959;28;20090;-73
2023/05/07 07:06:43;;;;;;;8.40;7.60;;;;;;;;;;4952785;28;20037;-74
2023/05/07 07:09:08;;;;;;;7.93;7.05;;;;;;;;;;4954956;28;20085;-75
2023/05/07 07:11:34;;;;;;;9.48;7.32;;;;;;;;;;4955940;28;20523;-74
2023/05/07 07:13:59;;;;;;;8.50;7.50;;;;;;;;;;4955024;28;20097;-71
2023/05/07 07:16:24;;;;;;;7.95;7.15;;;;;;;;;;4953139;28;20481;-71
2023/05/07 07:18:50;;;;;;;9.00;7.97;;;;;;;;;;4951911;28;20039;-71
2023/05/07 07:21:16;;;;;;;7.47;6.65;;;;;;;;;;4957087;28;20031;-70
2023/05/07 07:23:41;;;;;;;9.10;6.85;;;;;;;;;;4955287;28;20042;-72
2023/05/07 07:26:06;;;;;;;8.57;7.68;;;;;;;;;;4952706;28;20031;-75
2023/05/07 07:28:32;;;;;;;8.40;6.82;;;;;;;;;;4954251;28;20066;-72
2023/05/07 07:30:57;;;;;;;9.75;6.88;;;;;;;;;;4953328;28;20053;-77
2023/05/07 07:33:22;;;;;;;8.02;7.30;;;;;;;;;;4951480;28;20049;-72
2023/05/07 07:35:48;;;;;;;9.15;6.53;;;;;;;;;;4953966;28;20101;-71
2023/05/07 07:38:13;;;;;;;9.02;6.35;;;;;;;;;;4952615;28;20042;-74
2023/05/07 07:40:39;;;;;;;7.20;6.53;;;;;;;;;;4953085;28;21233;-71
2023/05/07 07:43:04;;;;;;;8.13;6.28;;;;;;;;;;4954768;28;20350;-71
2023/05/07 07:45:30;;;;;;;7.63;6.10;;;;;;;;;;4955443;28;20419;-73
2023/05/07 07:47:55;;;;;;;10.30;7.00;;;;;;;;;;4955518;28;20035;-70
2023/05/07 07:50:21;;;;;;;7.70;6.25;;;;;;;;;;4956777;28;20031;-71
2023/05/07 07:52:46;;;;;;;6.32;5.72;;;;;;;;;;4957787;28;20035;-72
2023/05/07 07:55:12;;;;;;;6.65;6.05;;;;;;;;;;4957233;28;20618;-71
2023/05/07 07:57:37;;;;;;;7.20;5.82;;;;;;;;;;4955494;28;20379;-74
2023/05/07 08:00:03;;;;;;;8.15;6.05;;;;;;;;;;4957937;28;20027;-71
2023/05/07 08:02:28;;;;;;;11.95;5.63;;;;;;;;;;4959694;28;20034;-71
2023/05/07 08:04:54;;;;;;;7.85;5.20;;;;;;;;;;4957700;28;20033;-70
2023/05/07 08:07:20;;;;;;;6.05;5.20;;;;;;;;;;4955709;28;20043;-74
2023/05/07 08:09:46;;;;;;;14.07;5.93;;;;;;;;;;4955353;28;20014;-73
2023/05/07 08:12:11;;;;;;;9.07;5.53;;;;;;;;;;4956394;28;20402;-75
2023/05/07 08:14:36;;;;;;;7.03;5.00;;;;;;;;;;4958363;28;20328;-71
2023/05/07 08:17:02;;;;;;;6.43;5.00;;;;;;;;;;4959181;28;20047;-72
2023/05/07 08:19:27;;;;;;;8.68;5.32;;;;;;;;;;4957963;28;20098;-71
2023/05/07 08:21:53;;;;;;;5.15;4.68;;;;;;;;;;4956995;28;20352;-71
2023/05/07 08:24:18;;;;;;;5.47;4.90;;;;;;;;;;4957380;28;20042;-72
2023/05/07 08:26:44;;;;;;;6.38;5.75;;;;;;;;;;4956983;28;20031;-71
2023/05/07 08:29:09;;;;;;;7.20;4.95;;;;;;;;;;4956052;28;20355;-76
2023/05/07 08:31:35;;;;;;;5.63;5.10;;;;;;;;;;4959301;28;20038;-71
2023/05/07 08:34:00;;;;;;;6.93;5.10;;;;;;;;;;4953554;28;20031;-75
2023/05/07 08:36:25;;;;;;;6.32;5.45;;;;;;;;;;4956173;28;20367;-73
2023/05/07 08:38:51;;;;;;;6.60;4.90;;;;;;;;;;4957651;28;20098;-72
2023/05/07 08:41:16;;;;;;;4.20;3.70;;;;;;;;;;4956405;28;20058;-71
2023/05/07 08:43:44;;;;;;;6.50;4.80;;;;;;;;;;4957348;28;20031;-73
2023/05/07 08:46:11;;;;;;;10.82;4.53;;;;;;;;;;4958252;28;20026;-72
2023/05/07 08:48:36;;;;;;;4.85;4.45;;;;;;;;;;4957038;28;20114;-76
2023/05/07 08:51:02;;;;;;;5.20;3.80;;;;;;;;;;4955724;28;20118;-72
2023/05/07 08:53:27;;;;;;;5.55;4.13;;;;;;;;;;4958426;28;20066;-71
2023/05/07 08:55:53;;;;;;;5.55;4.93;;;;;;;;;;4957784;28;20069;-71
2023/05/07 08:58:18;;;;;;;4.82;4.25;;;;;;;;;;4954049;28;20035;-71
2023/05/07 09:00:44;;;;;;;5.25;4.20;;;;;;;;;;4957369;28;20062;-72
2023/05/07 09:03:12;;;;;;;4.72;3.78;;;;;;;;;;4958033;28;20039;-75
2023/05/07 09:05:37;;;;;;;6.63;4.40;;;;;;;;;;4956644;28;20037;-72
2023/05/07 09:08:05;;;;;;;5.47;4.13;;;;;;;;;;4954432;28;20300;-72
2023/05/07 09:10:32;;;;;;;4.75;3.95;;;;;;;;;;4956355;28;20101;-75
2023/05/07 09:12:57;;;;;;;8.38;3.70;;;;;;;;;;4955545;28;20378;-72
2023/05/07 09:15:23;;;;;;;10.75;4.22;;;;;;;;;;4962413;28;20039;-72
2023/05/07 09:17:48;;;;;;;11.98;5.63;;;;;;;;;;4953373;28;20042;-72
2023/05/07 09:20:13;;;;;;;5.38;4.20;;;;;;;;;;4954549;28;20427;-72
2023/05/07 09:22:39;;;;;;;8.35;4.72;;;;;;;;;;4953750;28;20019;-73
2023/05/07 09:25:05;;;;;;;5.72;3.67;;;;;;;;;;4953626;28;20030;-76
2023/05/07 09:27:31;;;;;;;4.82;3.97;;;;;;;;;;4955594;28;20054;-75
2023/05/07 09:29:56;;;;;;;5.05;3.28;;;;;;;;;;4953987;28;20058;-76
2023/05/07 09:32:21;;;;;;;4.30;3.33;;;;;;;;;;4954902;28;20021;-73
2023/05/07 09:34:47;;;;;;;4.43;3.70;;;;;;;;;;4957141;28;20144;-73
2023/05/07 09:37:13;;;;;;;5.70;3.78;;;;;;;;;;4955061;28;20035;-73
2023/05/07 09:39:40;;;;;;;4.20;3.40;;;;;;;;;;4956422;28;20427;-73
2023/05/07 09:42:05;;;;;;;4.10;3.70;;;;;;;;;;4958320;28;20051;-77
2023/05/07 09:44:31;;;;;;;3.97;3.55;;;;;;;;;;4956048;28;20050;-72
2023/05/07 09:46:59;;;;;;;6.53;3.42;;;;;;;;;;4955263;28;20031;-73
2023/05/07 09:49:26;;;;;;;7.10;3.50;;;;;;;;;;4955665;28;20082;-73
2023/05/07 09:51:52;;;;;;;6.88;4.07;;;;;;;;;;4957342;28;20041;-74
2023/05/07 09:54:18;;;;;;;4.93;3.38;;;;;;;;;;4955100;28;20031;-73
2023/05/07 09:56:48;;;;;;;5.10;3.63;;;;;;;;;;4956241;28;20031;-73
2023/05/07 09:59:15;;;;;;;7.85;3.50;;;;;;;;;;4956623;28;20042;-74
2023/05/07 10:01:41;;;;;;;3.88;3.05;;;;;;;;;;4952336;28;20027;-75
2023/05/07 10:04:10;;;;;;;5.55;2.97;;;;;;;;;;4956672;28;20089;-72
2023/05/07 10:06:35;;;;;;;3.23;2.97;;;;;;;;;;4957938;28;20031;-72
2023/05/07 10:09:01;;;;;;;3.72;3.30;;;;;;;;;;4953058;28;20027;-75
2023/05/07 10:11:27;;;;;;;3.90;3.08;;;;;;;;;;4953892;28;20039;-73
2023/05/07 10:13:53;;;;;;;4.55;2.88;;;;;;;;;;4955696;28;20035;-74
2023/05/07 10:16:19;;;;;;;7.85;3.70;;;;;;;;;;4953442;28;20035;-72
2023/05/07 10:18:45;;;;;;;4.13;2.80;;;;;;;;;;4959956;28;20035;-75
2023/05/07 10:21:16;;;;;;;4.82;3.00;;;;;;;;;;4954697;28;20046;-72
2023/05/07 10:23:44;;;;;;;5.57;2.80;;;;;;;;;;4955713;28;20427;-73
2023/05/07 10:26:10;;;;;;;4.05;3.50;;;;;;;;;;4956144;28;20351;-73
2023/05/07 10:28:40;;;;;;;3.53;3.10;;;;;;;;;;4953117;28;20050;-74
2023/05/07 10:31:11;;;;;;;5.20;3.47;;;;;;;;;;4952921;28;20034;-74
2023/05/07 10:33:37;;;;;;;5.45;3.05;;;;;;;;;;4955901;28;20034;-73
2023/05/07 10:36:04;;;;;;;8.25;3.25;;;;;;;;;;4954481;28;20113;-72
2023/05/07 10:38:29;;;;;;;5.07;3.08;;;;;;;;;;4956818;28;20038;-73
2023/05/07 10:40:55;;;;;;;3.67;3.00;;;;;;;;;;4952593;28;20051;-75
2023/05/07 10:43:20;;;;;;;3.95;3.03;;;;;;;;;;4954340;28;20038;-75
2023/05/07 10:46:05;;;;;;;4.47;3.20;;;;;;;;;;4951202;28;20090;-72
2023/05/07 10:48:30;;;;;;;4.57;3.13;;;;;;;;;;4954036;28;20019;-72
2023/05/07 10:51:14;;;;;;;8.23;3.15;;;;;;;;;;4953380;28;20434;-75
2023/05/07 10:53:40;;;;;;;5.80;3.03;;;;;;;;;;4951974;28;20043;-78
2023/05/07 10:56:24;;;;;;;3.15;2.63;;;;;;;;;;4950659;28;20027;-74
2023/05/07 10:58:50;;;;;;;6.97;2.97;;;;;;;;;;4952713;28;21087;-73
2023/05/07 11:01:35;;;;;;;4.35;2.72;;;;;;;;;;4953320;28;20031;-73
2023/05/07 11:04:14;;;;;;;3.20;2.90;;;;;;;;;;4953090;28;20038;-72
2023/05/07 11:06:39;;;;;;;;;;;;;;;;;;4954950;28;20023;-75
2023/05/07 11:09:04;;;;;;;2.80;2.60;;;;;;;;;;4954249;28;19928;-75
2023/05/07 11:11:57;;;;;;;6.10;3.00;;;;;;;;;;4952226;28;20031;-73
2023/05/07 11:14:41;;;;;;;4.00;2.58;;;;;;;;;;4949639;28;20450;-77
2023/05/07 11:17:06;;;;;;;3.80;2.50;;;;;;;;;;4956112;28;20066;-76
2023/05/07 11:19:50;;;;;;;4.32;2.90;;;;;;;;;;4954960;28;20420;-74
2023/05/07 11:22:31;;;;;;;2.92;2.72;;;;;;;;;;4957383;28;20050;-75
2023/05/07 11:24:59;;;;;;;3.33;2.55;;;;;;;;;;4958960;28;20041;-74
2023/05/07 11:27:25;;;;;;;2.45;2.25;;;;;;;;;;4957259;28;20026;-73
2023/05/07 11:29:50;;;;;;;4.15;2.70;;;;;;;;;;4958981;28;20398;-73
2023/05/07 11:32:22;;;;;;;4.22;2.50;;;;;;;;;;4958253;28;20063;-74
2023/05/07 11:34:47;;;;;;;2.85;2.65;;;;;;;;;;4958818;28;20069;-76
2023/05/07 11:37:16;;;;;;;4.60;2.80;;;;;;;;;;4961935;28;20335;-73
2023/05/07 11:39:41;;;;;;;7.07;3.85;;;;;;;;;;4959819;28;20030;-73
2023/05/07 11:42:07;;;;;;;6.68;6.05;;;;;;;;;;4955301;28;20042;-76
2023/05/07 11:44:43;;;;;;;5.70;3.00;;;;;;;;;;4957300;28;20771;-75
2023/05/07 11:47:10;;;;;;;10.80;3.28;;;;;;;;;;4953778;28;20034;-72
2023/05/07 11:49:35;;;;;;;6.85;3.85;;;;;;;;;;4958795;28;20030;-76
2023/05/07 11:52:00;;;;;;;4.45;2.80;;;;;;;;;;4957021;28;20050;-75
2023/05/07 11:54:26;;;;;;;2.75;2.50;;;;;;;;;;4957483;28;20100;-74
2023/05/07 11:56:51;;;;;;;4.53;2.60;;;;;;;;;;4957261;28;20031;-72
2023/05/07 11:59:17;;;;;;;4.18;2.60;;;;;;;;;;4957136;28;20075;-72
2023/05/07 12:01:45;;;;;;;2.92;2.50;;;;;;;;;;4957735;28;20030;-72
2023/05/07 12:04:10;;;;;;;7.37;2.53;;;;;;;;;;4957720;28;20474;-73
2023/05/07 12:06:36;;;;;;;2.85;2.58;;;;;;;;;;4957469;28;20276;-73
2023/05/07 12:09:01;;;;;;;5.47;2.53;;;;;;;;;;4960818;28;20027;-74
2023/05/07 12:11:27;;;;;;;3.35;3.05;;;;;;;;;;4956142;28;20336;-74
2023/05/07 12:13:54;;;;;;;6.82;2.70;;;;;;;;;;4957638;28;20031;-72
2023/05/07 12:16:19;;;;;;;7.07;2.20;;;;;;;;;;4956804;28;20117;-75
2023/05/07 12:18:45;;;;;;;2.47;2.30;;;;;;;;;;4959137;28;20465;-74
2023/05/07 12:21:10;;;;;;;3.00;2.70;;;;;;;;;;4956647;28;20027;-73
2023/05/07 12:23:36;;;;;;;2.72;2.50;;;;;;;;;;4957580;28;20442;-74
2023/05/07 12:26:02;;;;;;;3.30;2.30;;;;;;;;;;4956428;28;20034;-73
2023/05/07 12:28:27;;;;;;;3.30;2.20;;;;;;;;;;4954089;28;20026;-73
2023/05/07 12:30:53;;;;;;;5.75;2.60;;;;;;;;;;4954897;28;20030;-72
2023/05/07 12:33:23;;;;;;;3.47;2.33;;;;;;;;;;4958445;28;20447;-75
2023/05/07 12:35:48;;;;;;;4.35;3.00;;;;;;;;;;4957186;28;20034;-73
2023/05/07 12:38:14;;;;;;;4.72;2.58;;;;;;;;;;4954545;28;20023;-73
2023/05/07 12:40:41;;;;;;;2.67;2.42;;;;;;;;;;4956594;28;20054;-76
2023/05/07 12:43:07;;;;;;;3.28;2.97;;;;;;;;;;4957770;28;20422;-71
2023/05/07 12:45:39;;;;;;;2.60;2.40;;;;;;;;;;4955131;28;20434;-73
2023/05/07 12:48:04;;;;;;;3.67;2.90;;;;;;;;;;4957408;28;20439;-72
2023/05/07 12:50:33;;;;;;;3.33;2.80;;;;;;;;;;4955172;28;20031;-74
2023/05/07 12:52:58;;;;;;;3.53;2.72;;;;;;;;;;4954346;28;20035;-73
2023/05/07 12:55:24;;;;;;;4.18;3.00;;;;;;;;;;4956274;28;20070;-73
2023/05/07 12:57:52;;;;;;;3.88;3.50;;;;;;;;;;4957231;28;20035;-73
2023/05/07 13:00:18;;;;;;;3.03;2.72;;;;;;;;;;4955613;28;20055;-73
2023/05/07 13:02:46;;;;;;;3.47;2.95;;;;;;;;;;4955737;28;20464;-72
2023/05/07 13:05:12;;;;;;;3.53;2.80;;;;;;;;;;4957703;28;20117;-73
2023/05/07 13:07:37;;;;;;;3.65;2.72;;;;;;;;;;4955464;28;20090;-73
2023/05/07 13:10:03;;;;;;;9.10;3.10;;;;;;;;;;4956983;28;20054;-73
2023/05/07 13:12:29;;;;;;;3.05;2.80;;;;;;;;;;4957694;28;20165;-72
2023/05/07 13:14:54;;;;;;;3.63;3.10;;;;;;;;;;4954720;28;20182;-72
2023/05/07 13:17:20;;;;;;;4.13;2.50;;;;;;;;;;4956096;28;20042;-73
2023/05/07 13:19:45;;;;;;;3.28;2.97;;;;;;;;;;4957022;28;20059;-74
2023/05/07 13:22:10;;;;;;;3.03;2.53;;;;;;;;;;4954827;28;20065;-73
2023/05/07 13:24:36;;;;;;;3.72;2.70;;;;;;;;;;4957522;28;20030;-75
2023/05/07 13:27:01;;;;;;;3.83;2.50;;;;;;;;;;4956522;28;20485;-73
2023/05/07 13:29:30;;;;;;;3.15;2.85;;;;;;;;;;4955252;28;20844;-73
2023/05/07 13:31:58;;;;;;;2.78;2.58;;;;;;;;;;4952568;28;20031;-72
2023/05/07 13:34:23;;;;;;;4.47;2.58;;;;;;;;;;4954676;28;20364;-72
2023/05/07 13:36:49;;;;;;;3.75;2.70;;;;;;;;;;4953491;28;20038;-73
2023/05/07 13:39:14;;;;;;;3.45;2.45;;;;;;;;;;4956418;28;20832;-73
2023/05/07 13:41:39;;;;;;;2.67;2.47;;;;;;;;;;4958029;28;20050;-72
2023/05/07 13:44:05;;;;;;;3.83;2.40;;;;;;;;;;4956543;28;20030;-73
2023/05/07 13:46:30;;;;;;;3.65;2.30;;;;;;;;;;4954794;28;20035;-73
2023/05/07 13:48:56;;;;;;;2.80;2.13;;;;;;;;;;4955943;28;20062;-74
2023/05/07 13:51:21;;;;;;;2.85;2.58;;;;;;;;;;4955100;28;20031;-76
2023/05/07 13:53:47;;;;;;;2.42;2.22;;;;;;;;;;4956291;28;20038;-78
2023/05/07 13:56:12;;;;;;;3.05;2.58;;;;;;;;;;4953667;28;20110;-75
2023/05/07 13:58:38;;;;;;;4.03;2.70;;;;;;;;;;4953292;28;20050;-73
2023/05/07 14:01:03;;;;;;;4.18;2.45;;;;;;;;;;4953801;28;20023;-72
2023/05/07 14:03:31;;;;;;;3.22;2.47;;;;;;;;;;4952703;28;20043;-73
2023/05/07 14:05:57;;;;;;;3.23;2.57;;;;;;;;;;4955151;28;20023;-73
2023/05/07 14:08:23;;;;;;;4.28;2.50;;;;;;;;;;4955340;28;20989;-73
2023/05/07 14:10:48;;;;;;;2.63;2.42;;;;;;;;;;4954649;28;20027;-72
2023/05/07 14:13:13;;;;;;;3.65;2.60;;;;;;;;;;4956183;28;20027;-73
2023/05/07 14:15:40;;;;;;;2.65;2.45;;;;;;;;;;4956900;28;20138;-72
2023/05/07 14:18:05;;;;;;;3.90;2.15;;;;;;;;;;4954022;28;20443;-73
2023/05/07 14:20:30;;;;;;;3.03;2.35;;;;;;;;;;4953215;28;20161;-73
2023/05/07 14:22:56;;;;;;;3.03;2.30;;;;;;;;;;4958791;28;20053;-76
2023/05/07 14:25:21;;;;;;;5.05;2.50;;;;;;;;;;4959918;28;20034;-73
2023/05/07 14:27:46;;;;;;;4.10;2.83;;;;;;;;;;4953572;28;20027;-73
2023/05/07 14:30:12;;;;;;;4.43;3.78;;;;;;;;;;4954251;28;20057;-73
2023/05/07 14:32:37;;;;;;;6.13;3.83;;;;;;;;;;4956756;28;20026;-73
2023/05/07 14:35:03;;;;;;;3.67;2.97;;;;;;;;;;4954613;28;20069;-73